Time;durP1;ratioP1;P1;durP2;ratioP2;P2;SDS_P1;SDS_P2;PMS_P1;PMS_P2;Temp;Humidity;BMP_temperature;BMP_pressure;BME280_temperature;BME280_humidity;BME280_pressure;Samples;Min_cycle;Max_cycle;Signal;HPM_P1;HPM_P2
2022/08/15 00:00:27;;;;;;;8.30;7.25;;;;;;;24.56;44.81;99172.97;5101625;28;20051;-74
2022/08/15 00:02:57;;;;;;;8.38;7.03;;;;;;;24.48;44.89;99162.28;5104390;28;20043;-73
2022/08/15 00:05:29;;;;;;;8.40;7.30;;;;;;;24.44;45.25;99161.81;5099919;28;20047;-73
2022/08/15 00:07:58;;;;;;;7.45;6.68;;;;;;;24.40;44.99;99156.97;5094512;27;20051;-72
2022/08/15 00:10:26;;;;;;;7.38;6.68;;;;;;;24.40;45.08;99167.78;5102725;28;20036;-72
2022/08/15 00:13:22;;;;;;;8.05;6.70;;;;;;;24.35;45.21;99156.72;5105112;28;20044;-74
2022/08/15 00:15:56;;;;;;;7.63;6.40;;;;;;;24.54;44.94;99185.06;5104311;27;20108;-72
2022/08/15 00:18:27;;;;;;;8.80;5.93;;;;;;;24.59;44.02;99182.59;5101442;28;20051;-72
2022/08/15 00:20:56;;;;;;;7.65;6.15;;;;;;;24.61;43.68;99173.25;5100070;27;20044;-72
2022/08/15 00:23:26;;;;;;;6.68;5.60;;;;;;;24.55;43.55;99163.22;5101567;28;20039;-74
2022/08/15 00:25:58;;;;;;;6.28;5.60;;;;;;;24.67;43.17;99175.22;5100996;28;20048;-73
2022/08/15 00:28:45;;;;;;;7.32;5.07;;;;;;;24.58;42.96;99153.84;5112235;27;20098;-73
2022/08/15 00:31:22;;;;;;;6.90;5.07;;;;;;;24.71;42.38;99172.97;5108836;28;20070;-73
2022/08/15 00:34:13;;;;;;;5.50;4.80;;;;;;;24.74;41.90;99161.72;5105660;28;20051;-72
2022/08/15 00:37:00;;;;;;;6.03;4.68;;;;;;;24.79;41.69;99170.97;5103441;27;20039;-74
2022/08/15 00:39:34;;;;;;;5.25;4.57;;;;;;;24.80;41.10;99161.81;5105939;27;20467;-73
2022/08/15 00:42:08;;;;;;;6.55;4.70;;;;;;;24.73;41.04;99143.81;5098339;27;20044;-74
2022/08/15 00:44:46;;;;;;;5.80;4.38;;;;;;;24.83;40.41;99160.59;5104984;27;20606;-73
2022/08/15 00:47:26;;;;;;;8.02;4.68;;;;;;;24.82;40.85;99159.75;5105265;27;20051;-73
2022/08/15 00:50:05;;;;;;;5.40;4.47;;;;;;;24.64;40.51;99134.97;5100199;27;20079;-73
2022/08/15 00:52:52;;;;;;;4.00;3.70;;;;;;;24.78;40.13;99157.59;5104701;27;20039;-75
2022/08/15 00:55:19;;;;;;;4.40;4.00;;;;;;;24.69;39.91;99153.38;5101178;28;20046;-74
2022/08/15 00:57:52;;;;;;;8.30;4.18;;;;;;;24.51;40.07;99137.56;5103009;28;20177;-74
2022/08/15 01:00:32;;;;;;;5.57;4.10;;;;;;;24.56;40.21;99172.97;5104647;27;20048;-74
2022/08/15 01:03:11;;;;;;;4.85;3.90;;;;;;;24.55;40.34;99171.34;5098697;27;20054;-74
2022/08/15 01:05:46;;;;;;;6.20;3.70;;;;;;;24.46;40.68;99158.94;5097800;28;20036;-75
2022/08/15 01:08:18;;;;;;;6.50;4.18;;;;;;;24.60;40.40;99176.16;5104561;27;20078;-74
2022/08/15 01:11:09;;;;;;;4.13;3.72;;;;;;;24.63;40.41;99168.50;5097972;28;20043;-72
2022/08/15 01:13:37;;;;;;;5.68;3.65;;;;;;;24.63;40.65;99167.66;5089092;28;20051;-74
2022/08/15 01:16:25;;;;;;;4.28;3.88;;;;;;;24.63;40.30;99168.50;5099625;28;20131;-74
2022/08/15 01:19:04;;;;;;;4.10;3.70;;;;;;;24.42;40.75;99147.63;5102334;27;20067;-73
2022/08/15 01:22:03;;;;;;;4.30;3.78;;;;;;;24.56;40.61;99178.41;5100722;27;20055;-74
2022/08/15 01:24:52;;;;;;;4.78;4.00;;;;;;;24.55;40.43;99178.63;5103388;27;20105;-74
2022/08/15 01:27:44;;;;;;;4.43;3.83;;;;;;;24.46;40.38;99161.63;5106338;27;20055;-74
2022/08/15 01:30:19;;;;;;;6.97;3.90;;;;;;;24.57;40.42;99169.25;5114231;27;20078;-72
2022/08/15 01:33:07;;;;;;;4.22;3.80;;;;;;;24.56;40.04;99172.97;5096942;27;20656;-76
2022/08/15 01:35:34;;;;;;;5.22;3.13;;;;;;;24.45;40.00;99152.69;5097259;27;20047;-75
2022/08/15 01:38:27;;;;;;;4.25;3.40;;;;;;;24.57;39.91;99173.81;5103199;27;20120;-74
2022/08/15 01:41:38;;;;;;;4.13;3.20;;;;;;;24.50;39.79;99162.94;5100507;28;20530;-75
2022/08/15 01:44:30;;;;;;;6.13;3.72;;;;;;;24.48;39.76;99165.84;5105892;28;20176;-73
2022/08/15 01:47:18;;;;;;;4.95;3.22;;;;;;;24.42;39.47;99168.44;5106573;27;20704;-75
2022/08/15 01:49:49;;;;;;;5.13;3.50;;;;;;;24.48;39.82;99194.75;5103842;27;20048;-75
2022/08/15 01:52:31;;;;;;;6.35;2.83;;;;;;;24.47;40.28;99193.91;5105332;27;20488;-75
2022/08/15 01:55:23;;;;;;;5.40;2.90;;;;;;;24.31;40.85;99182.47;5102625;28;20070;-74
2022/08/15 01:57:50;;;;;;;5.45;2.67;;;;;;;24.38;41.21;99199.66;5105434;27;20102;-74
2022/08/15 02:00:19;;;;;;;4.65;2.72;;;;;;;24.35;41.78;99211.69;5101933;28;20044;-75
2022/08/15 02:02:46;;;;;;;7.22;3.10;;;;;;;24.34;42.39;99207.28;5100247;27;20534;-74
2022/08/15 02:05:14;;;;;;;5.32;3.05;;;;;;;24.38;42.55;99200.47;5100655;28;20829;-74
2022/08/15 02:07:41;;;;;;;4.35;2.75;;;;;;;24.33;42.70;99186.69;5104379;27;20134;-73
2022/08/15 02:10:28;;;;;;;4.50;3.00;;;;;;;24.32;42.85;99194.97;5096060;27;20127;-73
2022/08/15 02:12:55;;;;;;;5.68;2.90;;;;;;;24.27;43.07;99203.66;5100626;28;20051;-73
2022/08/15 02:15:40;;;;;;;5.32;2.80;;;;;;;24.32;42.88;99213.91;5096922;27;20140;-77
2022/08/15 02:18:09;;;;;;;3.35;3.05;;;;;;;24.31;43.23;99226.59;5099759;28;20067;-73
2022/08/15 02:20:36;;;;;;;4.72;2.80;;;;;;;24.26;43.29;99225.47;5097464;28;20101;-72
2022/08/15 02:23:05;;;;;;;4.40;2.78;;;;;;;24.11;43.50;99203.81;5102542;28;20051;-73
2022/08/15 02:25:32;;;;;;;5.65;2.70;;;;;;;24.15;44.01;99215.94;5104057;27;20040;-73
2022/08/15 02:28:03;;;;;;;5.72;3.13;;;;;;;24.08;44.71;99213.16;5097949;28;20096;-72
2022/08/15 02:30:52;;;;;;;5.05;3.15;;;;;;;24.02;45.12;99224.72;5098424;28;20096;-74
2022/08/15 02:33:21;;;;;;;4.00;3.10;;;;;;;24.01;45.67;99222.22;5100722;28;20141;-74
2022/08/15 02:35:51;;;;;;;3.65;2.90;;;;;;;23.92;46.17;99213.34;5098219;28;20679;-73
2022/08/15 02:38:20;;;;;;;7.85;3.40;;;;;;;23.89;46.75;99215.59;5102152;27;20047;-74
2022/08/15 02:40:50;;;;;;;8.77;3.20;;;;;;;23.78;46.78;99223.13;5097214;28;20069;-74
2022/08/15 02:43:19;;;;;;;6.22;3.05;;;;;;;23.76;47.52;99224.34;5099501;28;20069;-74
2022/08/15 02:45:47;;;;;;;4.97;3.20;;;;;;;23.72;47.52;99217.63;5102358;28;20071;-74
2022/08/15 02:48:34;;;;;;;6.50;3.00;;;;;;;23.64;47.95;99207.72;5098626;28;20488;-74
2022/08/15 02:51:08;;;;;;;6.72;3.00;;;;;;;23.66;47.85;99212.94;5082874;28;20100;-73
2022/08/15 02:53:39;;;;;;;4.93;2.97;;;;;;;23.68;47.87;99224.41;5097355;28;20100;-74
2022/08/15 02:56:14;;;;;;;3.50;2.58;;;;;;;23.68;48.14;99224.41;5097938;28;20495;-73
2022/08/15 02:58:42;;;;;;;6.75;3.63;;;;;;;23.60;48.77;99203.72;5101567;28;20139;-73
2022/08/15 03:01:10;;;;;;;8.68;3.38;;;;;;;23.73;49.23;99227.41;5098977;28;20503;-73
2022/08/15 03:03:44;;;;;;;6.45;3.45;;;;;;;23.76;49.39;99222.47;5094287;28;20545;-73
2022/08/15 03:06:12;;;;;;;6.07;3.28;;;;;;;23.67;49.92;99214.63;5092172;28;20051;-72
2022/08/15 03:09:00;;;;;;;4.13;3.30;;;;;;;23.74;50.44;99229.09;5099000;28;20043;-71
2022/08/15 03:11:28;;;;;;;;;;;;;;;23.73;50.72;99235.53;5104808;28;20043;-71
2022/08/15 03:14:19;;;;;;;8.30;3.55;;;;;;;23.64;51.56;99228.50;5090362;28;20237;-71
2022/08/15 03:17:01;;;;;;;5.25;3.60;;;;;;;23.63;52.05;99229.53;5100951;28;20073;-73
2022/08/15 03:19:33;;;;;;;8.80;3.80;;;;;;;23.65;52.02;99232.88;5105590;28;20097;-72
2022/08/15 03:22:06;;;;;;;5.93;3.60;;;;;;;23.61;52.18;99209.97;5101734;28;20043;-73
2022/08/15 03:24:34;;;;;;;7.25;3.70;;;;;;;23.61;52.45;99221.59;5104327;28;20039;-73
2022/08/15 03:27:01;;;;;;;8.13;3.40;;;;;;;23.59;52.44;99215.56;5105548;28;20075;-74
2022/08/15 03:29:28;;;;;;;4.57;3.50;;;;;;;23.51;52.75;99215.63;5105575;27;20134;-74
2022/08/15 03:32:09;;;;;;;8.60;3.50;;;;;;;23.52;52.61;99227.28;5107746;27;20319;-74
2022/08/15 03:34:54;;;;;;;4.57;3.80;;;;;;;23.47;53.02;99213.44;5098528;28;20410;-74
2022/08/15 03:37:20;;;;;;;6.72;3.85;;;;;;;23.58;52.88;99232.78;5100216;27;20044;-73
2022/08/15 03:39:47;;;;;;;4.85;3.35;;;;;;;23.58;52.75;99230.09;5104430;27;20476;-74
2022/08/15 03:42:17;;;;;;;7.88;3.35;;;;;;;23.60;52.83;99227.22;5104535;28;20129;-73
2022/08/15 03:44:48;;;;;;;5.50;3.55;;;;;;;23.65;52.80;99232.88;5106415;28;20489;-73
2022/08/15 03:47:16;;;;;;;3.75;3.33;;;;;;;23.59;53.16;99220.97;5101225;28;20048;-73
2022/08/15 03:49:43;;;;;;;7.18;3.20;;;;;;;23.51;53.01;99204.81;5099989;27;20057;-72
2022/08/15 03:52:29;;;;;;;6.20;3.50;;;;;;;23.63;53.09;99226.81;5103077;28;20617;-74
2022/08/15 03:55:04;;;;;;;9.00;3.58;;;;;;;23.64;52.86;99221.22;5098169;27;20506;-73
2022/08/15 03:57:41;;;;;;;5.95;3.53;;;;;;;23.66;52.97;99229.16;5097306;28;20135;-74
2022/08/15 04:00:32;;;;;;;8.27;3.67;;;;;;;23.63;53.07;99240.34;5102331;27;20531;-74
2022/08/15 04:03:09;;;;;;;5.45;3.47;;;;;;;23.60;53.54;99246.13;5101269;28;20545;-73
2022/08/15 04:05:39;;;;;;;6.82;3.58;;;;;;;23.50;53.54;99243.63;5102661;27;20044;-73
2022/08/15 04:08:09;;;;;;;6.70;3.35;;;;;;;23.41;53.96;99236.63;5105402;28;20047;-73
2022/08/15 04:10:57;;;;;;;13.18;3.20;;;;;;;23.30;54.06;99237.03;5101441;28;20645;-73
2022/08/15 04:13:25;;;;;;;5.80;3.50;;;;;;;23.23;54.13;99228.84;5105377;28;20892;-74
2022/08/15 04:15:53;;;;;;;4.65;3.80;;;;;;;23.19;54.06;99222.13;5101782;28;20047;-73
2022/08/15 04:18:40;;;;;;;8.18;3.72;;;;;;;23.33;53.87;99239.38;5101826;27;20046;-74
2022/08/15 04:21:12;;;;;;;5.05;3.25;;;;;;;23.31;54.01;99242.25;5100390;28;20082;-74
2022/08/15 04:23:43;;;;;;;;;;;;;;;23.31;54.04;99236.88;5101046;28;20101;-73
2022/08/15 04:26:13;;;;;;;4.53;3.08;;;;;;;23.33;53.88;99245.63;5105383;28;19923;-74
2022/08/15 04:28:51;;;;;;;6.93;3.65;;;;;;;23.30;53.92;99240.59;5101230;27;20048;-74
2022/08/15 04:31:21;;;;;;;7.13;3.20;;;;;;;23.32;53.66;99241.25;5089877;28;20298;-73
2022/08/15 04:33:48;;;;;;;4.97;3.20;;;;;;;23.36;54.04;99253.38;5098159;28;20771;-74
2022/08/15 04:36:36;;;;;;;9.32;3.28;;;;;;;23.43;53.73;99248.94;5102631;28;20339;-74
2022/08/15 04:39:03;;;;;;;6.75;3.20;;;;;;;23.47;54.01;99251.25;5106317;28;20098;-71
2022/08/15 04:41:32;;;;;;;5.47;3.30;;;;;;;23.43;54.13;99237.28;5103961;28;20431;-73
2022/08/15 04:44:06;;;;;;;5.20;2.88;;;;;;;23.52;53.83;99246.19;5100494;28;20455;-74
2022/08/15 04:46:42;;;;;;;3.63;3.03;;;;;;;23.56;54.19;99247.50;5101283;28;20054;-74
2022/08/15 04:49:10;;;;;;;7.50;3.22;;;;;;;23.50;54.01;99230.13;5104645;27;20047;-74
2022/08/15 04:51:37;;;;;;;5.50;3.30;;;;;;;23.57;54.03;99251.91;5101143;28;20044;-71
2022/08/15 04:54:05;;;;;;;3.60;2.92;;;;;;;23.42;54.50;99246.41;5102395;28;20626;-72
2022/08/15 04:56:31;;;;;;;6.88;3.10;;;;;;;23.32;55.04;99243.94;5101851;28;20112;-74
2022/08/15 04:59:19;;;;;;;6.63;3.20;;;;;;;23.43;54.80;99250.81;5087427;28;20491;-73
2022/08/15 05:02:07;;;;;;;5.90;3.00;;;;;;;23.41;54.95;99229.38;5099124;27;20744;-74
2022/08/15 05:04:54;;;;;;;9.60;3.42;;;;;;;23.37;55.21;99240.72;5105717;28;20055;-73
2022/08/15 05:07:21;;;;;;;11.27;3.10;;;;;;;23.21;55.73;99233.59;5107712;28;20384;-73
2022/08/15 05:09:54;;;;;;;3.65;2.92;;;;;;;23.15;56.37;99237.00;5101724;28;20507;-74
2022/08/15 05:12:26;;;;;;;4.88;3.03;;;;;;;23.24;56.33;99227.81;5101473;28;20049;-74
2022/08/15 05:15:15;;;;;;;7.03;3.10;;;;;;;23.35;56.03;99227.38;5106538;28;20067;-73
2022/08/15 05:17:45;;;;;;;6.68;3.35;;;;;;;23.35;55.92;99229.25;5102754;27;20047;-74
2022/08/15 05:20:23;;;;;;;6.57;3.80;;;;;;;23.29;56.22;99217.31;5102051;28;20130;-72
2022/08/15 05:22:58;;;;;;;6.80;3.10;;;;;;;23.21;56.42;99208.44;5107339;28;20563;-74
2022/08/15 05:25:28;;;;;;;7.38;3.15;;;;;;;23.19;56.85;99215.88;5107223;28;20450;-75
2022/08/15 05:27:55;;;;;;;9.15;3.58;;;;;;;23.25;56.61;99224.09;5102446;28;20468;-75
2022/08/15 05:30:23;;;;;;;5.57;3.22;;;;;;;23.13;56.96;99209.34;5102935;27;20043;-75
2022/08/15 05:33:06;;;;;;;6.35;3.08;;;;;;;23.21;57.13;99211.97;5094513;27;20056;-72
2022/08/15 05:35:41;;;;;;;6.47;3.15;;;;;;;23.33;56.79;99215.91;5099806;28;20166;-74
2022/08/15 05:38:14;;;;;;;4.60;2.95;;;;;;;23.40;56.19;99222.28;5102921;28;20036;-74
2022/08/15 05:40:56;;;;;;;9.10;3.00;;;;;;;23.55;55.93;99226.91;5101562;28;20124;-74
2022/08/15 05:43:41;;;;;;;3.75;3.17;;;;;;;23.58;55.75;99230.09;5102279;28;20075;-74
2022/08/15 05:46:31;;;;;;;6.78;3.25;;;;;;;23.52;56.19;99232.69;5100754;27;20035;-74
2022/08/15 05:49:25;;;;;;;7.13;3.20;;;;;;;23.62;55.66;99235.94;5092686;27;20048;-74
2022/08/15 05:52:08;;;;;;;8.85;3.22;;;;;;;23.66;55.67;99221.88;5091934;27;20179;-75
2022/08/15 05:55:03;;;;;;;5.30;3.17;;;;;;;23.77;55.14;99240.34;5093635;27;20452;-74
2022/08/15 05:57:34;;;;;;;5.45;2.72;;;;;;;23.56;56.23;99239.41;5095267;27;20117;-74
2022/08/15 06:00:11;;;;;;;6.82;3.85;;;;;;;23.52;56.04;99243.47;5096311;27;20051;-74
2022/08/15 06:02:47;;;;;;;4.45;2.80;;;;;;;23.51;56.21;99237.25;5113809;28;20056;-76
2022/08/15 06:05:40;;;;;;;7.45;3.38;;;;;;;23.47;56.31;99240.44;5101823;28;20068;-78
2022/08/15 06:08:15;;;;;;;6.57;2.90;;;;;;;23.44;56.52;99250.63;5096561;28;20578;-76
2022/08/15 06:11:10;;;;;;;4.55;3.17;;;;;;;23.47;56.38;99246.69;5100585;27;20071;-76
2022/08/15 06:13:40;;;;;;;6.18;2.90;;;;;;;23.52;56.39;99257.00;5101210;27;20065;-75
2022/08/15 06:16:39;;;;;;;4.35;3.20;;;;;;;23.52;56.55;99255.13;5096133;27;20047;-75
2022/08/15 06:19:26;;;;;;;5.10;2.78;;;;;;;23.38;56.66;99256.75;5101294;27;20048;-71
2022/08/15 06:22:22;;;;;;;7.10;3.25;;;;;;;23.30;57.05;99255.94;5107014;28;20528;-74
2022/08/15 06:25:19;;;;;;;6.50;3.35;;;;;;;23.18;57.62;99250.13;5100486;27;20039;-74
2022/08/15 06:27:52;;;;;;;7.40;3.38;;;;;;;23.12;58.03;99248.19;5100089;28;20119;-74
2022/08/15 06:30:42;;;;;;;8.40;3.35;;;;;;;22.98;58.32;99238.97;5103179;27;20171;-74
2022/08/15 06:33:29;;;;;;;10.32;3.28;;;;;;;22.96;58.60;99243.72;5088155;28;20066;-75
2022/08/15 06:36:41;;;;;;;7.30;3.10;;;;;;;22.96;58.98;99246.44;5092413;27;20051;-75
2022/08/15 06:39:34;;;;;;;9.25;3.03;;;;;;;23.09;58.52;99249.38;5092689;28;20039;-74
2022/08/15 06:42:24;;;;;;;6.53;3.28;;;;;;;23.15;58.05;99255.91;5101099;27;20105;-74
2022/08/15 06:45:10;;;;;;;4.68;2.60;;;;;;;23.12;57.79;99236.53;5099261;28;20051;-74
2022/08/15 06:47:40;;;;;;;5.18;3.38;;;;;;;23.35;57.87;99270.59;5100813;28;20055;-74
2022/08/15 06:50:20;;;;;;;7.88;2.97;;;;;;;23.43;57.63;99261.59;5099003;28;20660;-73
2022/08/15 06:52:53;;;;;;;6.53;3.20;;;;;;;23.40;57.77;99257.41;5091222;28;20831;-74
2022/08/15 06:55:39;;;;;;;5.88;3.20;;;;;;;23.42;57.75;99249.97;5095879;28;20571;-73
2022/08/15 06:58:16;;;;;;;7.22;3.33;;;;;;;23.52;57.30;99259.69;5092461;28;20170;-75
2022/08/15 07:01:48;;;;;;;4.90;2.83;;;;;;;23.59;57.00;99253.41;5093659;28;20058;-74
2022/08/15 07:04:35;;;;;;;8.65;3.60;;;;;;;23.61;56.35;99248.63;5099981;28;20054;-74
2022/08/15 07:07:17;;;;;;;5.60;3.20;;;;;;;23.41;57.29;99250.97;5102930;28;20151;-73
2022/08/15 07:09:50;;;;;;;5.50;3.10;;;;;;;23.34;57.84;99252.72;5092989;28;20079;-73
2022/08/15 07:12:37;;;;;;;5.63;3.17;;;;;;;23.38;58.00;99256.75;5101535;28;20255;-75
2022/08/15 07:15:46;;;;;;;7.82;3.47;;;;;;;23.56;57.24;99267.25;5098551;28;20525;-75
2022/08/15 07:18:22;;;;;;;16.70;3.40;;;;;;;23.66;57.11;99256.19;5104518;28;20047;-74
2022/08/15 07:21:07;;;;;;;7.25;3.60;;;;;;;23.74;57.06;99262.38;5097975;28;20052;-74
2022/08/15 07:23:59;;;;;;;5.25;3.22;;;;;;;23.77;56.73;99269.25;5102066;28;20044;-72
2022/08/15 07:26:29;;;;;;;8.27;3.33;;;;;;;23.76;56.21;99252.22;5106300;28;20152;-74
2022/08/15 07:28:59;;;;;;;5.50;3.45;;;;;;;23.83;56.53;99263.13;5103334;28;20051;-75
2022/08/15 07:31:33;;;;;;;6.57;3.40;;;;;;;23.97;56.23;99272.25;5109931;28;20039;-73
2022/08/15 07:34:25;;;;;;;6.50;3.17;;;;;;;24.03;55.46;99247.19;5104401;28;20124;-72
2022/08/15 07:36:56;;;;;;;9.15;4.07;;;;;;;24.18;55.48;99271.53;5093914;28;20468;-73
2022/08/15 07:39:33;;;;;;;9.20;3.50;;;;;;;23.90;55.83;99277.59;5092600;28;20063;-74
2022/08/15 07:42:36;;;;;;;5.82;3.90;;;;;;;23.80;56.25;99271.59;5091965;28;20040;-74
2022/08/15 07:45:37;;;;;;;8.30;3.88;;;;;;;23.71;56.48;99267.31;5089200;28;20411;-74
2022/08/15 07:48:24;;;;;;;7.10;3.70;;;;;;;23.80;56.98;99279.69;5092440;28;20081;-74
2022/08/15 07:51:25;;;;;;;6.47;3.03;;;;;;;23.93;56.09;99277.19;5091079;28;20043;-74
2022/08/15 07:54:02;;;;;;;8.90;3.75;;;;;;;23.97;55.75;99259.59;5100349;28;20052;-73
2022/08/15 07:56:34;;;;;;;10.48;4.10;;;;;;;24.00;56.17;99269.19;5102993;28;20444;-76
2022/08/15 07:59:22;;;;;;;6.57;3.42;;;;;;;23.94;55.83;99253.69;5104228;28;20610;-71
2022/08/15 08:01:54;;;;;;;5.28;3.50;;;;;;;23.90;56.29;99269.47;5101407;28;20056;-72
2022/08/15 08:04:29;;;;;;;7.15;3.30;;;;;;;23.95;56.50;99274.31;5106536;28;20085;-72
2022/08/15 08:07:16;;;;;;;5.15;3.55;;;;;;;24.06;55.97;99276.59;5104504;28;20141;-72
2022/08/15 08:10:08;;;;;;;9.00;3.70;;;;;;;24.08;55.73;99286.16;5106345;28;20078;-73
2022/08/15 08:13:05;;;;;;;7.22;3.50;;;;;;;24.18;55.70;99301.31;5106265;28;20152;-74
2022/08/15 08:15:57;;;;;;;5.10;3.33;;;;;;;24.22;55.63;99305.31;5104587;28;20213;-72
2022/08/15 08:18:50;;;;;;;6.38;3.55;;;;;;;24.10;55.92;99300.34;5100026;28;20044;-74
2022/08/15 08:21:21;;;;;;;5.60;3.55;;;;;;;24.06;56.05;99304.47;5096821;27;20152;-74
2022/08/15 08:24:01;;;;;;;6.43;3.72;;;;;;;24.20;56.52;99307.38;5098003;28;20142;-73
2022/08/15 08:26:31;;;;;;;8.68;3.50;;;;;;;24.37;56.33;99306.19;5098205;28;20126;-74
2022/08/15 08:29:17;;;;;;;7.40;3.58;;;;;;;24.53;56.01;99311.41;5096158;27;20075;-73
2022/08/15 08:32:12;;;;;;;5.40;3.78;;;;;;;24.68;55.84;99312.25;5101256;27;20078;-74
2022/08/15 08:35:33;;;;;;;5.97;3.55;;;;;;;24.74;55.91;99322.28;5098093;28;20066;-75
2022/08/15 08:38:36;;;;;;;9.30;4.25;;;;;;;24.78;55.87;99329.03;5097894;28;20071;-74
2022/08/15 08:41:36;;;;;;;5.30;3.70;;;;;;;24.76;55.51;99320.25;5100438;27;20047;-75
2022/08/15 08:44:53;;;;;;;7.22;3.60;;;;;;;24.89;55.90;99322.28;5110911;28;20067;-74
2022/08/15 08:47:45;;;;;;;5.30;3.67;;;;;;;25.02;55.57;99318.94;5095117;27;20514;-74
2022/08/15 08:50:27;;;;;;;5.32;3.60;;;;;;;25.02;56.00;99324.34;5092370;28;20476;-73
2022/08/15 08:53:14;;;;;;;5.40;3.85;;;;;;;25.04;55.33;99322.25;5097727;27;20139;-72
2022/08/15 08:55:49;;;;;;;7.93;4.25;;;;;;;24.90;56.37;99333.94;5102139;27;20043;-75
2022/08/15 08:58:40;;;;;;;5.30;3.53;;;;;;;25.03;55.38;99329.56;5105458;28;20035;-74
2022/08/15 09:01:15;;;;;;;4.65;3.65;;;;;;;24.79;56.41;99335.28;5105724;27;20047;-71
2022/08/15 09:03:51;;;;;;;6.05;4.18;;;;;;;24.34;58.08;99330.91;5092432;27;20484;-73
2022/08/15 09:06:23;;;;;;;5.45;3.70;;;;;;;24.43;58.29;99336.03;5098472;27;20187;-71
2022/08/15 09:09:18;;;;;;;7.18;3.78;;;;;;;24.54;57.32;99304.97;5104444;28;20100;-72
2022/08/15 09:11:55;;;;;;;7.68;4.07;;;;;;;25.19;56.19;99344.75;5093061;27;20048;-70
2022/08/15 09:14:35;;;;;;;7.55;3.83;;;;;;;25.28;55.09;99340.91;5099154;28;20065;-71
2022/08/15 09:17:14;;;;;;;9.85;4.10;;;;;;;24.98;55.35;99339.28;5101480;28;20158;-70
2022/08/15 09:20:11;;;;;;;7.55;3.88;;;;;;;25.31;54.53;99340.53;5100835;28;20562;-72
2022/08/15 09:22:48;;;;;;;6.87;3.73;;;;;;;25.78;53.24;99342.69;5105750;28;20463;-72
2022/08/15 09:25:20;;;;;;;9.02;4.38;;;;;;;26.02;52.22;99346.00;5102484;28;20481;-74
2022/08/15 09:28:07;;;;;;;5.55;3.58;;;;;;;25.63;52.98;99355.47;5098812;28;20075;-71
2022/08/15 09:30:55;;;;;;;7.75;3.80;;;;;;;25.65;52.92;99358.84;5097540;27;20513;-73
2022/08/15 09:33:44;;;;;;;9.03;3.97;;;;;;;25.63;53.06;99360.06;5103820;28;20087;-77
2022/08/15 09:36:16;;;;;;;6.35;3.50;;;;;;;25.73;52.42;99357.84;5096233;27;20130;-77
2022/08/15 09:39:25;;;;;;;6.35;3.58;;;;;;;25.84;51.94;99346.47;5108573;27;20514;-74
2022/08/15 09:42:04;;;;;;;5.10;3.38;;;;;;;25.23;53.33;99359.59;5106921;27;20130;-77
2022/08/15 09:45:19;;;;;;;7.20;3.40;;;;;;;24.91;54.56;99344.59;5096670;28;20047;-74
2022/08/15 09:49:00;;;;;;;4.50;3.20;;;;;;;25.15;54.29;99355.16;5101635;28;20043;-76
2022/08/15 09:51:35;;;;;;;7.80;3.35;;;;;;;25.09;53.68;99346.94;5069304;27;20043;-74
2022/08/15 09:54:23;;;;;;;8.00;3.40;;;;;;;25.18;52.94;99340.38;5104451;28;20039;-76
2022/08/15 09:57:34;;;;;;;4.05;3.08;;;;;;;25.22;53.11;99354.34;5097434;28;20070;-74
2022/08/15 10:00:17;;;;;;;4.47;3.60;;;;;;;24.61;55.07;99338.38;5102808;27;20407;-75
2022/08/15 10:02:52;;;;;;;7.03;3.58;;;;;;;24.46;55.18;99356.47;5099712;28;20049;-72
2022/08/15 10:05:42;;;;;;;5.97;3.13;;;;;;;24.40;55.43;99366.16;5105456;27;20087;-74
2022/08/15 10:08:13;;;;;;;4.57;3.47;;;;;;;24.37;55.76;99354.91;5094590;27;20070;-73
2022/08/15 10:11:08;;;;;;;6.25;3.72;;;;;;;24.42;55.35;99355.16;5100135;28;20516;-76
2022/08/15 10:13:45;;;;;;;;;;;;;;;24.59;54.69;99361.22;5099100;27;20127;-76
2022/08/15 10:16:41;;;;;;;5.22;3.45;;;;;;;24.53;54.53;99353.88;5093672;27;19928;-74
2022/08/15 10:19:31;;;;;;;5.15;3.63;;;;;;;24.33;56.10;99356.28;5093194;28;20043;-74
2022/08/15 10:22:22;;;;;;;5.95;3.35;;;;;;;24.36;55.46;99331.56;5104791;27;20048;-77
2022/08/15 10:25:17;;;;;;;6.67;3.67;;;;;;;24.87;55.00;99353.31;5102582;28;20129;-76
2022/08/15 10:28:19;;;;;;;4.68;3.40;;;;;;;25.09;52.94;99344.22;5102016;27;20482;-73
2022/08/15 10:31:05;;;;;;;4.60;3.50;;;;;;;25.10;53.30;99359.44;5105188;28;20039;-72
2022/08/15 10:33:35;;;;;;;7.82;3.72;;;;;;;25.20;53.27;99359.97;5104185;28;20047;-75
2022/08/15 10:36:03;;;;;;;5.95;3.40;;;;;;;25.16;53.31;99358.69;5100276;28;20310;-79
2022/08/15 10:38:59;;;;;;;6.18;4.00;;;;;;;25.31;53.76;99334.25;5106748;27;20051;-78
2022/08/15 10:41:50;;;;;;;5.82;3.50;;;;;;;25.72;52.08;99339.91;5103178;27;20641;-76
2022/08/15 10:44:47;;;;;;;6.63;3.85;;;;;;;25.93;51.08;99320.91;5100982;28;20044;-73
2022/08/15 10:47:19;;;;;;;8.23;3.15;;;;;;;26.18;49.57;99348.41;5103438;28;20048;-76
2022/08/15 10:49:59;;;;;;;5.50;3.65;;;;;;;26.04;50.39;99339.34;5097648;28;20071;-75
2022/08/15 10:52:31;;;;;;;5.80;3.72;;;;;;;26.28;49.82;99342.66;5105029;28;20070;-74
2022/08/15 10:55:00;;;;;;;;;;;;;;;26.54;48.13;99345.56;5101355;28;20047;-73
2022/08/15 10:57:39;;;;;;;4.88;3.45;;;;;;;26.82;47.39;99342.78;5101501;28;19928;-71
2022/08/15 11:00:27;;;;;;;8.23;3.60;;;;;;;27.15;47.06;99341.06;5101807;28;20118;-71
2022/08/15 11:03:20;;;;;;;5.38;3.50;;;;;;;27.20;46.78;99341.28;5107992;28;20071;-74
2022/08/15 11:06:02;;;;;;;6.55;3.38;;;;;;;27.54;45.73;99334.06;5103253;28;20136;-75
2022/08/15 11:08:29;;;;;;;4.25;3.47;;;;;;;27.79;45.37;99345.19;5101499;28;20412;-73
2022/08/15 11:11:04;;;;;;;6.00;3.90;;;;;;;28.22;43.82;99330.13;5104055;28;20054;-76
2022/08/15 11:13:32;;;;;;;5.85;3.67;;;;;;;28.49;42.55;99343.72;5097848;28;20101;-72
2022/08/15 11:16:14;;;;;;;4.60;3.30;;;;;;;28.33;43.26;99330.56;5107304;28;20329;-75
2022/08/15 11:19:19;;;;;;;5.40;3.55;;;;;;;27.64;43.62;99350.00;5107314;28;20479;-77
2022/08/15 11:22:16;;;;;;;8.45;4.38;;;;;;;26.97;45.45;99343.50;5099560;28;20048;-78
2022/08/15 11:24:54;;;;;;;6.90;3.50;;;;;;;26.94;45.51;99349.34;5087162;28;20082;-76
2022/08/15 11:27:27;;;;;;;4.45;3.35;;;;;;;26.84;46.20;99351.56;5106350;28;20050;-74
2022/08/15 11:29:59;;;;;;;4.75;3.40;;;;;;;26.75;45.57;99337.34;5119064;28;20043;-73
2022/08/15 11:32:46;;;;;;;5.30;3.60;;;;;;;26.38;46.43;99343.16;5108429;28;20511;-76
2022/08/15 11:35:31;;;;;;;3.97;3.40;;;;;;;26.58;46.10;99354.16;5098496;28;20043;-74
2022/08/15 11:38:05;;;;;;;6.10;3.33;;;;;;;26.47;46.59;99352.81;5106014;28;20139;-75
2022/08/15 11:40:52;;;;;;;6.93;3.50;;;;;;;26.37;46.40;99317.06;5103282;28;20507;-77
2022/08/15 11:43:21;;;;;;;4.63;3.15;;;;;;;26.86;45.29;99349.50;5105812;27;20040;-75
2022/08/15 11:45:51;;;;;;;7.28;3.50;;;;;;;26.65;45.60;99320.53;5113557;27;20043;-74
2022/08/15 11:48:25;;;;;;;5.60;3.70;;;;;;;26.96;45.52;99339.09;5108893;28;20092;-73
2022/08/15 11:51:21;;;;;;;4.45;3.30;;;;;;;27.32;43.77;99340.69;5104476;27;20051;-73
2022/08/15 11:54:10;;;;;;;3.75;3.15;;;;;;;27.76;42.81;99335.56;5113740;27;20646;-74
2022/08/15 11:56:49;;;;;;;3.08;2.83;;;;;;;28.13;42.29;99333.25;5101960;28;20442;-71
2022/08/15 11:59:26;;;;;;;4.03;2.70;;;;;;;28.40;41.63;99336.81;5096934;27;20116;-73
2022/08/15 12:02:00;;;;;;;3.53;3.00;;;;;;;28.06;41.70;99335.97;5105435;27;20054;-73
2022/08/15 12:04:31;;;;;;;5.00;3.20;;;;;;;27.68;42.15;99335.78;5109840;27;20093;-76
2022/08/15 12:07:28;;;;;;;4.00;3.00;;;;;;;27.32;43.78;99332.53;5104317;28;20077;-73
2022/08/15 12:10:27;;;;;;;5.00;3.20;;;;;;;27.71;43.20;99320.91;5105096;27;20067;-72
2022/08/15 12:13:23;;;;;;;3.85;2.90;;;;;;;28.08;42.90;99331.16;5104645;27;20084;-73
2022/08/15 12:16:01;;;;;;;5.10;3.40;;;;;;;27.92;43.06;99326.16;5105510;27;20039;-71
2022/08/15 12:18:49;;;;;;;10.38;3.40;;;;;;;27.18;45.15;99340.66;5105657;27;20165;-73
2022/08/15 12:21:17;;;;;;;4.80;3.33;;;;;;;26.52;46.91;99350.34;5102842;28;20391;-72
2022/08/15 12:24:06;;;;;;;4.40;3.28;;;;;;;26.60;46.77;99352.91;5105433;28;20047;-73
2022/08/15 12:26:33;;;;;;;3.80;3.20;;;;;;;26.96;46.03;99352.69;5104200;28;20051;-74
2022/08/15 12:29:15;;;;;;;3.60;2.92;;;;;;;27.47;44.84;99354.94;5102628;27;20384;-74
2022/08/15 12:31:45;;;;;;;6.38;3.28;;;;;;;26.98;45.17;99361.47;5104108;27;20123;-75
2022/08/15 12:34:27;;;;;;;6.40;3.60;;;;;;;26.53;45.99;99368.31;5102312;27;20052;-74
2022/08/15 12:37:02;;;;;;;8.88;3.45;;;;;;;26.16;46.67;99362.19;5103247;27;20043;-74